Time;durP1;ratioP1;P1;durP2;ratioP2;P2;SDS_P1;SDS_P2;PMS_P1;PMS_P2;Temp;Humidity;BMP_temperature;BMP_pressure;BME280_temperature;BME280_humidity;BME280_pressure;Samples;Min_cycle;Max_cycle;Signal;HPM_P1;HPM_P2
2021/06/26 00:00:55;;;;;;;12.93;11.50;;;;;;;17.13;68.57;100137.38;5012440;28;20042;-69
2021/06/26 00:03:26;;;;;;;14.32;11.63;;;;;;;17.12;68.37;100143.50;4974089;28;1109577;-68
2021/06/26 00:05:53;;;;;;;13.95;11.52;;;;;;;17.13;68.68;100140.84;5014035;28;20044;-69
2021/06/26 00:08:19;;;;;;;12.90;11.30;;;;;;;17.13;68.66;100138.22;5013921;28;20040;-68
2021/06/26 00:10:46;;;;;;;15.27;12.20;;;;;;;17.14;68.72;100142.59;5012653;28;20132;-68
2021/06/26 00:13:15;;;;;;;16.45;11.55;;;;;;;17.14;68.64;100139.13;5012703;28;20056;-68
2021/06/26 00:15:46;;;;;;;13.13;11.55;;;;;;;17.13;68.82;100135.59;5013817;28;20041;-69
2021/06/26 00:18:18;;;;;;;14.55;11.07;;;;;;;17.12;68.71;100141.75;5013866;28;20073;-68
2021/06/26 00:20:44;;;;;;;12.52;10.88;;;;;;;17.12;68.64;100141.75;5013652;28;20046;-69
2021/06/26 00:23:10;;;;;;;15.65;12.20;;;;;;;17.14;68.80;100141.72;5012322;28;20481;-68
2021/06/26 00:25:39;;;;;;;13.35;10.40;;;;;;;17.12;68.84;100133.91;5013621;28;20038;-67
2021/06/26 00:28:07;;;;;;;14.02;12.20;;;;;;;17.14;68.74;100139.13;5013085;28;20083;-68
2021/06/26 00:30:33;;;;;;;14.88;11.95;;;;;;;17.14;68.64;100139.13;5012687;28;20041;-68
2021/06/26 00:33:04;;;;;;;13.43;11.88;;;;;;;17.13;68.78;100138.22;5013807;28;20026;-68
2021/06/26 00:35:32;;;;;;;12.52;11.23;;;;;;;17.14;68.74;100139.97;5013786;28;20042;-69
2021/06/26 00:38:01;;;;;;;15.38;12.90;;;;;;;17.13;68.92;100137.38;5012541;28;20543;-69
2021/06/26 00:40:31;;;;;;;14.35;11.85;;;;;;;17.15;68.97;100140.84;5012537;28;20046;-68
2021/06/26 00:42:59;;;;;;;13.52;10.85;;;;;;;17.13;68.97;100138.22;5012430;28;20112;-68
2021/06/26 00:45:28;;;;;;;14.68;11.70;;;;;;;17.13;68.90;100140.84;5013902;28;20045;-69
2021/06/26 00:47:56;;;;;;;14.30;11.30;;;;;;;17.13;68.99;100133.00;5013435;28;20092;-68
2021/06/26 00:50:30;;;;;;;15.93;12.75;;;;;;;17.14;68.94;100129.50;5012086;28;20108;-68
2021/06/26 00:52:55;;;;;;;12.98;11.00;;;;;;;17.13;68.62;100126.91;5011930;28;20412;-68
2021/06/26 00:55:30;;;;;;;13.55;12.15;;;;;;;17.14;68.84;100128.63;5013534;28;20044;-69
2021/06/26 00:58:01;;;;;;;13.82;11.75;;;;;;;17.13;69.04;100129.50;5013443;28;20036;-69
2021/06/26 01:00:29;;;;;;;13.80;12.32;;;;;;;17.14;69.17;100128.63;5012570;28;20038;-68
2021/06/26 01:02:57;;;;;;;13.05;11.65;;;;;;;17.13;69.13;100134.75;5013162;28;20049;-68
2021/06/26 01:05:26;;;;;;;14.60;11.82;;;;;;;17.14;69.09;100129.50;5013287;28;20034;-68
2021/06/26 01:07:54;;;;;;;14.88;12.20;;;;;;;17.14;69.04;100126.03;5012408;28;20494;-69
2021/06/26 01:10:23;;;;;;;14.80;12.40;;;;;;;17.14;69.05;100124.25;5012110;28;20069;-69
2021/06/26 01:12:51;;;;;;;14.65;11.98;;;;;;;17.15;69.12;100130.38;5012035;28;20038;-68
2021/06/26 01:15:20;;;;;;;16.58;13.63;;;;;;;17.13;69.06;100121.66;5011631;28;20390;-68
2021/06/26 01:17:49;;;;;;;15.02;11.27;;;;;;;17.14;69.16;100120.78;5013185;28;20037;-68
2021/06/26 01:20:16;;;;;;;13.32;11.93;;;;;;;17.14;69.08;100123.41;5012990;28;20174;-68
2021/06/26 01:22:47;;;;;;;14.23;12.00;;;;;;;17.13;69.13;100122.50;5012446;28;20045;-69
2021/06/26 01:25:18;;;;;;;14.13;11.55;;;;;;;17.13;68.93;100119.03;5013575;28;20081;-68
2021/06/26 01:27:46;;;;;;;14.88;11.70;;;;;;;17.13;69.19;100119.91;5013161;28;20049;-68
2021/06/26 01:30:25;;;;;;;12.65;10.75;;;;;;;17.13;69.17;100119.91;5012952;28;20134;-68
2021/06/26 01:32:50;;;;;;;14.13;12.18;;;;;;;17.13;69.05;100116.44;5013567;28;20058;-68
2021/06/26 01:35:20;;;;;;;13.60;12.05;;;;;;;17.12;69.11;100120.81;5013071;28;20072;-67
2021/06/26 01:37:48;;;;;;;15.40;12.52;;;;;;;17.12;69.24;100117.31;5013334;28;20172;-68
2021/06/26 01:40:22;;;;;;;14.10;12.18;;;;;;;17.14;69.23;100123.41;5016322;28;20481;-68
2021/06/26 01:42:51;;;;;;;16.30;12.15;;;;;;;17.12;69.15;100120.81;5015362;28;20038;-68
2021/06/26 01:45:21;;;;;;;13.82;11.95;;;;;;;17.12;69.19;100120.81;5016232;28;20117;-69
2021/06/26 01:47:46;;;;;;;16.38;12.38;;;;;;;17.13;69.55;100116.44;5016065;28;20406;-69
2021/06/26 01:50:16;;;;;;;12.77;11.40;;;;;;;17.12;69.22;100123.44;5016355;28;20046;-68
2021/06/26 01:52:47;;;;;;;14.02;11.90;;;;;;;17.13;69.25;100126.91;5016369;28;20057;-69
2021/06/26 01:55:17;;;;;;;13.95;11.30;;;;;;;17.12;69.46;100118.19;5015264;28;20037;-68
2021/06/26 01:57:47;;;;;;;15.30;11.90;;;;;;;17.12;69.30;100126.03;5015454;28;20033;-68
2021/06/26 02:00:16;;;;;;;14.00;12.23;;;;;;;17.13;69.43;100119.03;5016297;28;20444;-68
2021/06/26 02:02:44;;;;;;;13.77;12.18;;;;;;;17.12;69.10;100119.94;5016287;28;20108;-68
2021/06/26 02:05:11;;;;;;;15.68;12.80;;;;;;;17.12;69.32;100114.69;5014957;28;20133;-68
2021/06/26 02:07:36;;;;;;;15.10;12.90;;;;;;;17.13;69.46;100119.03;5014654;28;20041;-69
2021/06/26 02:10:06;;;;;;;13.63;11.75;;;;;;;17.12;69.47;100114.69;5014650;28;20044;-69
2021/06/26 02:12:35;;;;;;;13.70;12.32;;;;;;;17.12;69.78;100114.69;4998129;28;20379;-69
2021/06/26 02:15:00;;;;;;;15.73;11.88;;;;;;;17.11;69.44;100105.97;5015616;28;20501;-69
2021/06/26 02:17:27;;;;;;;17.17;12.50;;;;;;;17.12;69.50;100115.56;5014867;28;20030;-69
2021/06/26 02:19:52;;;;;;;15.38;13.20;;;;;;;17.12;69.47;100112.06;5014537;28;20059;-69
2021/06/26 02:22:21;;;;;;;15.75;12.77;;;;;;;17.12;69.50;100120.81;5014211;28;20513;-69
2021/06/26 02:24:49;;;;;;;16.77;13.27;;;;;;;17.13;69.25;100113.81;5013934;28;20041;-69
2021/06/26 02:27:17;;;;;;;15.30;13.20;;;;;;;17.12;69.47;100112.06;5016206;28;20117;-68
2021/06/26 02:29:47;;;;;;;15.25;13.15;;;;;;;17.12;69.47;100109.44;4998541;28;20104;-69
2021/06/26 02:32:15;;;;;;;14.75;13.02;;;;;;;17.12;69.53;100114.69;5015509;28;20038;-69
2021/06/26 02:34:43;;;;;;;15.85;13.40;;;;;;;17.10;69.50;100112.09;5015500;28;20034;-69
2021/06/26 02:37:12;;;;;;;16.05;13.07;;;;;;;17.11;69.38;100111.22;5014391;28;20034;-70
2021/06/26 02:39:43;;;;;;;15.25;13.60;;;;;;;17.11;69.44;100116.44;5015650;28;20042;-69
2021/06/26 02:42:11;;;;;;;15.07;13.02;;;;;;;17.10;69.59;100114.72;5014299;28;20041;-69
2021/06/26 02:44:37;;;;;;;14.75;12.80;;;;;;;17.12;69.49;100114.69;5015211;28;20544;-68
2021/06/26 02:47:08;;;;;;;14.90;11.82;;;;;;;17.10;69.45;100109.47;4997682;28;20133;-69
2021/06/26 02:49:36;;;;;;;16.48;13.13;;;;;;;17.11;69.49;100103.34;5014798;28;20048;-69
2021/06/26 02:52:06;;;;;;;16.13;12.77;;;;;;;17.11;69.52;100110.34;5013943;28;20049;-68
2021/06/26 02:54:32;;;;;;;15.85;13.88;;;;;;;17.11;69.65;100110.34;5015612;28;20029;-69
2021/06/26 02:57:02;;;;;;;15.27;13.30;;;;;;;17.10;69.63;100116.44;5015466;28;20042;-68
2021/06/26 02:59:30;;;;;;;17.10;12.57;;;;;;;17.11;69.38;100115.56;5014060;28;20049;-68
2021/06/26 03:01:58;;;;;;;15.05;12.38;;;;;;;17.10;69.60;100114.72;5013371;28;20476;-68
2021/06/26 03:04:27;;;;;;;15.93;12.82;;;;;;;17.10;69.24;100111.22;5015053;28;20030;-68
2021/06/26 03:06:55;;;;;;;13.32;11.43;;;;;;;17.10;69.63;100119.06;5014918;28;20042;-68
2021/06/26 03:09:24;;;;;;;16.13;13.77;;;;;;;17.09;69.59;100109.47;5013374;28;20497;-68
2021/06/26 03:11:53;;;;;;;13.88;12.05;;;;;;;17.10;69.63;100108.59;5014698;28;20065;-68
2021/06/26 03:14:23;;;;;;;15.95;12.65;;;;;;;17.10;69.73;100103.34;5015119;28;20038;-68
2021/06/26 03:16:49;;;;;;;13.63;12.23;;;;;;;17.09;69.62;100099.88;5014497;28;20041;-68
2021/06/26 03:19:14;;;;;;;13.88;11.88;;;;;;;17.09;69.63;100102.50;5013063;28;20052;-67
2021/06/26 03:21:48;;;;;;;17.23;12.57;;;;;;;17.09;69.74;100093.75;5013822;28;20100;-68
2021/06/26 03:24:16;;;;;;;13.85;12.07;;;;;;;17.09;69.54;100104.25;5014596;28;20034;-68
2021/06/26 03:26:42;;;;;;;14.70;11.43;;;;;;;17.08;69.71;100103.38;5014624;28;20069;-69
2021/06/26 03:29:08;;;;;;;13.45;11.90;;;;;;;17.09;69.57;100104.25;5013327;28;20401;-68
2021/06/26 03:31:39;;;;;;;12.07;10.77;;;;;;;17.09;69.53;100101.63;5014313;28;20089;-68
2021/06/26 03:34:05;;;;;;;15.68;12.10;;;;;;;17.07;69.62;100098.16;4997180;28;20511;-68
2021/06/26 03:36:36;;;;;;;13.65;11.85;;;;;;;17.08;69.39;100098.16;5014460;28;20169;-68
2021/06/26 03:39:02;;;;;;;13.40;11.35;;;;;;;17.08;69.61;100099.88;5014224;28;20041;-68
2021/06/26 03:41:31;;;;;;;13.77;11.50;;;;;;;17.08;69.57;100102.50;5013213;28;20034;-67
2021/06/26 03:44:00;;;;;;;14.02;11.52;;;;;;;17.07;69.60;100099.03;5012949;28;20034;-68
2021/06/26 03:46:29;;;;;;;13.02;11.45;;;;;;;17.07;69.62;100095.53;5012715;28;20374;-68
2021/06/26 03:48:55;;;;;;;13.82;11.43;;;;;;;17.07;69.77;100101.66;5013303;28;20026;-67
2021/06/26 03:51:21;;;;;;;13.30;11.55;;;;;;;17.07;69.44;100100.75;5014052;28;20060;-68
2021/06/26 03:53:47;;;;;;;14.10;11.80;;;;;;;17.06;69.73;100099.91;5013150;28;20038;-69
2021/06/26 03:56:16;;;;;;;13.27;11.77;;;;;;;17.07;69.48;100095.53;5014132;28;20046;-68
2021/06/26 03:58:47;;;;;;;12.40;11.00;;;;;;;17.05;69.70;100103.41;5014421;28;20037;-69
2021/06/26 04:01:15;;;;;;;13.82;11.43;;;;;;;17.05;69.67;100106.03;5012224;28;20069;-68
2021/06/26 04:03:41;;;;;;;15.02;12.18;;;;;;;17.05;69.48;100103.41;5014776;28;20042;-68
2021/06/26 04:06:06;;;;;;;14.23;11.77;;;;;;;17.04;69.56;100107.78;5012850;28;20042;-68
2021/06/26 04:08:34;;;;;;;14.70;12.48;;;;;;;17.03;69.58;100107.78;5013855;28;20033;-68
2021/06/26 04:11:03;;;;;;;12.80;11.43;;;;;;;17.02;69.65;100109.56;5013740;28;20038;-69
2021/06/26 04:13:34;;;;;;;14.18;10.98;;;;;;;17.02;69.59;100101.69;5012676;28;20034;-68
2021/06/26 04:16:05;;;;;;;13.73;12.00;;;;;;;17.02;69.56;100104.31;5012922;28;20038;-68
2021/06/26 04:18:30;;;;;;;15.10;11.63;;;;;;;17.01;69.42;100102.56;5014009;28;20044;-67
2021/06/26 04:21:01;;;;;;;14.13;12.63;;;;;;;17.00;69.62;100108.69;5013654;28;20026;-68
2021/06/26 04:23:27;;;;;;;13.75;12.20;;;;;;;17.01;69.47;100106.94;5013870;28;20143;-68
2021/06/26 04:25:56;;;;;;;14.20;11.20;;;;;;;17.00;69.52;100111.31;5012561;28;20124;-67
2021/06/26 04:28:24;;;;;;;13.55;11.32;;;;;;;17.00;69.47;100110.44;5011981;28;20042;-68
2021/06/26 04:30:49;;;;;;;13.50;12.05;;;;;;;17.02;69.53;100113.91;5013887;28;20037;-67
2021/06/26 04:33:18;;;;;;;13.63;10.70;;;;;;;17.00;69.72;100116.56;5013682;28;20065;-68
2021/06/26 04:35:46;;;;;;;14.20;11.98;;;;;;;17.01;69.57;100123.53;5013757;28;20049;-68
2021/06/26 04:38:23;;;;;;;16.27;12.27;;;;;;;17.01;69.53;100120.91;5013382;28;20100;-67
2021/06/26 04:40:53;;;;;;;12.43;10.85;;;;;;;17.00;69.21;100119.16;5012364;28;20045;-67
2021/06/26 04:43:19;;;;;;;13.15;11.27;;;;;;;17.01;69.49;100120.91;5012237;28;20485;-68
2021/06/26 04:45:50;;;;;;;15.88;10.68;;;;;;;17.02;69.35;100116.53;5013522;28;20034;-68
2021/06/26 04:48:24;;;;;;;13.27;10.88;;;;;;;17.01;69.46;100126.16;5013486;28;20087;-67
2021/06/26 04:50:52;;;;;;;12.20;10.95;;;;;;;17.01;69.46;100127.88;5013727;28;20034;-68
2021/06/26 04:53:21;;;;;;;11.77;10.52;;;;;;;17.02;69.49;100127.00;5013424;28;20616;-67
2021/06/26 04:55:52;;;;;;;15.55;11.43;;;;;;;17.01;69.09;100131.38;5013885;28;20040;-67
2021/06/26 04:58:23;;;;;;;12.82;10.07;;;;;;;17.01;69.52;100128.75;5013299;28;20125;-67
2021/06/26 05:00:53;;;;;;;14.75;11.20;;;;;;;17.01;69.68;100131.38;5013383;28;20038;-67
2021/06/26 05:03:25;;;;;;;12.25;10.50;;;;;;;17.01;69.28;100127.88;5012943;28;20077;-67
2021/06/26 05:05:53;;;;;;;14.07;10.73;;;;;;;17.01;69.39;100130.50;5013403;28;20116;-66
2021/06/26 05:08:19;;;;;;;11.60;10.38;;;;;;;17.01;69.39;100134.00;5013372;28;20056;-68
2021/06/26 05:10:51;;;;;;;12.70;10.18;;;;;;;17.00;69.34;100134.88;5012179;28;20049;-68
2021/06/26 05:13:19;;;;;;;10.98;9.57;;;;;;;17.00;69.37;100137.50;5014765;28;20034;-68
2021/06/26 05:15:45;;;;;;;12.35;11.00;;;;;;;17.00;69.29;100131.38;5015925;28;20088;-67
2021/06/26 05:18:14;;;;;;;10.88;9.77;;;;;;;16.99;69.35;100129.63;5017087;28;20041;-67
2021/06/26 05:20:40;;;;;;;10.93;9.77;;;;;;;16.99;69.31;100125.28;5016836;28;20464;-68
2021/06/26 05:23:14;;;;;;;11.82;10.15;;;;;;;17.00;69.36;100129.63;5016876;28;20130;-68
2021/06/26 05:25:40;;;;;;;13.40;10.82;;;;;;;17.00;69.34;100127.03;5017287;28;20069;-67
2021/06/26 05:28:08;;;;;;;11.52;9.73;;;;;;;16.98;69.28;100120.94;5015356;28;20125;-67
2021/06/26 05:30:37;;;;;;;11.93;10.25;;;;;;;17.00;69.12;100128.75;5015562;28;20096;-68
2021/06/26 05:33:06;;;;;;;11.73;10.00;;;;;;;16.98;69.24;100125.28;5015437;28;20034;-69
2021/06/26 05:35:32;;;;;;;12.07;10.75;;;;;;;16.99;69.09;100124.41;5016494;28;20038;-66
2021/06/26 05:38:01;;;;;;;10.95;9.80;;;;;;;16.99;69.40;100120.03;5015316;28;20060;-68
2021/06/26 05:40:32;;;;;;;11.68;9.07;;;;;;;16.98;69.29;100126.16;5016156;28;20518;-67
2021/06/26 05:43:00;;;;;;;12.95;10.63;;;;;;;16.97;69.13;100124.44;5015339;28;20040;-68
2021/06/26 05:45:28;;;;;;;15.50;9.48;;;;;;;16.99;69.42;100121.78;5016284;28;20049;-67
2021/06/26 05:47:54;;;;;;;11.23;9.98;;;;;;;16.98;69.34;100123.53;5016234;28;20492;-67
2021/06/26 05:50:22;;;;;;;12.57;9.70;;;;;;;16.98;69.38;100126.16;5016394;28;20125;-67
2021/06/26 05:52:53;;;;;;;10.55;9.45;;;;;;;16.99;69.26;100125.28;5016671;28;20030;-66
2021/06/26 05:55:22;;;;;;;15.63;11.13;;;;;;;16.99;69.19;100127.00;5016206;28;20034;-68
2021/06/26 05:57:48;;;;;;;11.40;9.98;;;;;;;16.99;69.44;100133.13;4998420;28;20037;-66
2021/06/26 06:00:18;;;;;;;16.10;10.43;;;;;;;16.99;69.26;100129.63;5014906;28;20077;-67
2021/06/26 06:02:48;;;;;;;10.40;8.98;;;;;;;17.00;69.19;100131.38;5015653;28;20049;-67
2021/06/26 06:05:17;;;;;;;12.43;9.55;;;;;;;17.00;69.37;100129.63;5016499;28;20041;-69
2021/06/26 06:07:46;;;;;;;11.27;9.43;;;;;;;17.00;69.23;100132.25;5016101;28;20064;-67
2021/06/26 06:10:17;;;;;;;10.60;9.50;;;;;;;17.00;69.37;100126.13;5016045;28;20034;-67
2021/06/26 06:12:46;;;;;;;13.55;10.10;;;;;;;17.00;69.23;100127.03;5015795;28;20049;-67
2021/06/26 06:15:12;;;;;;;13.82;10.70;;;;;;;16.99;69.12;100127.91;5015971;28;20037;-67
2021/06/26 06:17:42;;;;;;;13.63;9.77;;;;;;;17.01;69.24;100130.50;5015014;28;20551;-67
2021/06/26 06:20:10;;;;;;;13.73;10.35;;;;;;;17.01;68.79;100131.38;5015894;28;20030;-67
2021/06/26 06:22:42;;;;;;;12.30;9.63;;;;;;;17.00;69.44;100129.63;5015848;28;20054;-67
2021/06/26 06:25:10;;;;;;;10.82;9.68;;;;;;;17.01;69.22;100134.00;5015764;28;20049;-67
2021/06/26 06:27:37;;;;;;;10.98;9.75;;;;;;;17.02;69.21;100134.84;5014192;28;20501;-68
2021/06/26 06:30:04;;;;;;;12.02;10.40;;;;;;;17.02;69.20;100127.00;5015881;28;20374;-67
2021/06/26 06:32:35;;;;;;;11.02;9.93;;;;;;;17.03;69.25;100133.97;5015617;28;20044;-66
2021/06/26 06:35:01;;;;;;;11.23;9.63;;;;;;;17.03;69.09;100139.19;5015591;28;20034;-68
2021/06/26 06:37:29;;;;;;;10.50;8.80;;;;;;;17.04;69.25;100133.97;5014084;28;20044;-67
2021/06/26 06:39:58;;;;;;;12.60;9.18;;;;;;;17.04;69.04;100136.59;5013755;28;20045;-67
2021/06/26 06:42:26;;;;;;;12.20;9.93;;;;;;;17.05;69.20;100138.28;5014624;28;20073;-67
2021/06/26 06:44:51;;;;;;;11.10;9.38;;;;;;;17.06;69.38;100139.19;5015517;28;20030;-68
2021/06/26 06:47:22;;;;;;;10.10;8.73;;;;;;;17.07;69.13;100129.56;5013849;28;20128;-68
2021/06/26 06:49:48;;;;;;;11.25;9.10;;;;;;;17.07;68.96;100132.19;5015240;28;20038;-67
2021/06/26 06:52:13;;;;;;;10.10;9.00;;;;;;;17.08;69.15;100131.31;5015330;28;20465;-66
2021/06/26 06:54:41;;;;;;;10.60;9.35;;;;;;;17.06;69.04;100133.94;5015104;28;20099;-67
2021/06/26 06:57:13;;;;;;;13.35;10.05;;;;;;;17.09;69.10;100133.91;5014956;28;20386;-67
2021/06/26 06:59:46;;;;;;;11.25;9.38;;;;;;;17.10;69.10;100132.16;5015194;28;20033;-67
2021/06/26 07:02:14;;;;;;;11.07;9.52;;;;;;;17.09;69.03;100128.69;5014863;28;20072;-66
2021/06/26 07:04:43;;;;;;;10.00;8.60;;;;;;;17.10;69.08;100132.16;5014569;28;20034;-66
2021/06/26 07:07:09;;;;;;;11.18;9.68;;;;;;;17.10;68.92;100135.66;5014895;28;20038;-68
2021/06/26 07:09:34;;;;;;;13.40;10.32;;;;;;;17.12;68.93;100135.63;5014663;28;20038;-67
2021/06/26 07:12:07;;;;;;;12.50;9.65;;;;;;;17.11;68.99;100140.03;5014804;28;20065;-67
2021/06/26 07:14:38;;;;;;;13.70;9.80;;;;;;;17.11;68.91;100145.25;5015138;28;20494;-67
2021/06/26 07:17:07;;;;;;;11.27;9.23;;;;;;;17.13;69.04;100140.84;5014610;28;20097;-67
2021/06/26 07:19:32;;;;;;;11.00;8.93;;;;;;;17.14;69.03;100139.97;5014802;28;20057;-66
2021/06/26 07:21:58;;;;;;;12.00;9.77;;;;;;;17.12;68.99;100139.13;5014987;28;20127;-68
2021/06/26 07:24:25;;;;;;;10.73;9.15;;;;;;;17.13;68.89;100140.84;5014494;28;20512;-66
2021/06/26 07:26:56;;;;;;;11.40;8.60;;;;;;;17.14;68.86;100142.59;5014234;28;20472;-66
2021/06/26 07:29:22;;;;;;;11.52;9.10;;;;;;;17.15;69.06;100146.94;5014647;28;20057;-67
2021/06/26 07:31:50;;;;;;;11.13;9.02;;;;;;;17.15;68.90;100136.47;5014602;28;20061;-67
2021/06/26 07:34:16;;;;;;;11.25;9.77;;;;;;;17.16;68.96;100137.34;5014481;28;20571;-67
2021/06/26 07:36:41;;;;;;;12.20;9.50;;;;;;;17.16;68.96;100139.97;5014206;28;20073;-67
2021/06/26 07:39:10;;;;;;;14.65;9.00;;;;;;;17.16;68.78;100146.06;5013149;28;20401;-67
2021/06/26 07:41:36;;;;;;;9.25;8.23;;;;;;;17.17;68.92;100144.31;5014272;28;20056;-67
2021/06/26 07:44:04;;;;;;;11.25;8.98;;;;;;;17.18;68.96;100148.69;5012932;28;20124;-67
2021/06/26 07:46:30;;;;;;;10.57;9.40;;;;;;;17.18;68.88;100146.06;5014293;28;20049;-66
2021/06/26 07:48:55;;;;;;;11.52;9.55;;;;;;;17.20;68.90;100154.78;5014148;28;20037;-67
2021/06/26 07:51:26;;;;;;;11.13;8.90;;;;;;;17.20;68.96;100145.16;5014238;28;20573;-67
2021/06/26 07:53:53;;;;;;;11.38;8.07;;;;;;;17.21;68.88;100151.25;5014344;28;20104;-66
2021/06/26 07:56:22;;;;;;;10.25;8.40;;;;;;;17.22;68.81;100147.75;5014114;28;20473;-67
2021/06/26 07:58:51;;;;;;;11.73;8.93;;;;;;;17.23;68.93;100146.00;5012570;28;20041;-66
2021/06/26 08:01:22;;;;;;;11.98;8.68;;;;;;;17.22;68.75;100139.03;5014272;28;20069;-66
2021/06/26 08:03:47;;;;;;;9.80;8.38;;;;;;;17.23;68.76;100144.25;5012497;28;20062;-66
2021/06/26 08:06:15;;;;;;;10.77;8.30;;;;;;;17.23;68.84;100138.16;5012871;28;20029;-67
2021/06/26 08:08:41;;;;;;;10.93;8.77;;;;;;;17.23;68.52;100141.63;5013903;28;20048;-66
2021/06/26 08:11:09;;;;;;;11.68;9.23;;;;;;;17.24;68.64;100142.50;5013800;28;20401;-66
2021/06/26 08:13:37;;;;;;;11.70;8.60;;;;;;;17.25;68.74;100139.00;5013937;28;20040;-67
2021/06/26 08:16:09;;;;;;;11.27;8.52;;;;;;;17.26;68.42;100148.59;5012530;28;20030;-66
2021/06/26 08:18:34;;;;;;;12.20;8.35;;;;;;;17.26;68.78;100149.47;5013014;28;20113;-67
2021/06/26 08:21:07;;;;;;;12.32;8.80;;;;;;;17.27;68.86;100142.50;5014191;28;20161;-68
2021/06/26 08:23:36;;;;;;;11.18;8.95;;;;;;;17.26;68.75;100146.84;5012306;28;20037;-66
2021/06/26 08:26:05;;;;;;;9.50;8.50;;;;;;;17.26;68.61;100149.47;5013304;28;20061;-67
2021/06/26 08:28:30;;;;;;;10.07;8.82;;;;;;;17.28;68.48;100149.47;5013711;28;20563;-66
2021/06/26 08:31:02;;;;;;;10.57;8.85;;;;;;;17.28;68.70;100146.84;5013733;28;20041;-68
2021/06/26 08:33:28;;;;;;;10.85;8.75;;;;;;;17.28;68.56;100152.94;5012353;28;20520;-67
2021/06/26 08:35:53;;;;;;;11.00;9.10;;;;;;;17.28;68.56;100150.31;5013569;28;20121;-66
2021/06/26 08:38:19;;;;;;;10.82;8.75;;;;;;;17.30;68.54;100148.56;5012389;28;20038;-67
2021/06/26 08:40:54;;;;;;;10.45;8.63;;;;;;;17.29;68.60;100144.19;5013879;28;20065;-66
2021/06/26 08:43:21;;;;;;;11.68;7.88;;;;;;;17.31;68.51;100152.91;5013598;28;20100;-66
2021/06/26 08:45:53;;;;;;;10.20;8.23;;;;;;;17.32;68.64;100159.00;5013773;28;20038;-67
2021/06/26 08:48:19;;;;;;;10.00;8.35;;;;;;;17.33;68.67;100150.25;5014993;28;20397;-66
2021/06/26 08:50:48;;;;;;;9.82;8.77;;;;;;;17.34;68.43;100152.00;5017688;28;20042;-66
2021/06/26 08:53:17;;;;;;;10.18;8.10;;;;;;;17.35;68.44;100148.50;5017300;28;20038;-66
2021/06/26 08:55:42;;;;;;;12.00;8.50;;;;;;;17.38;68.44;100155.44;5016290;28;20033;-66
2021/06/26 08:58:08;;;;;;;8.88;7.97;;;;;;;17.38;68.41;100147.59;5017046;28;20037;-66
2021/06/26 09:00:34;;;;;;;13.35;9.52;;;;;;;17.39;68.40;100151.94;5015836;28;20033;-66
2021/06/26 09:03:05;;;;;;;9.68;8.68;;;;;;;17.39;68.14;100150.22;5015778;28;20050;-66
2021/06/26 09:05:31;;;;;;;12.20;8.85;;;;;;;17.40;68.49;100144.09;5016169;28;20037;-67
2021/06/26 09:08:11;;;;;;;9.95;8.20;;;;;;;17.40;68.36;100146.72;5016947;28;20076;-67
2021/06/26 09:10:38;;;;;;;9.85;8.18;;;;;;;17.41;68.43;100148.44;5016851;28;20120;-68
2021/06/26 09:13:24;;;;;;;9.93;8.43;;;;;;;17.42;68.17;100146.69;5017226;28;20037;-66
2021/06/26 09:16:12;;;;;;;9.10;8.10;;;;;;;17.42;68.09;100137.09;5017117;28;20057;-66
2021/06/26 09:18:41;;;;;;;11.05;8.57;;;;;;;17.42;68.34;100134.47;5016928;28;20041;-67
2021/06/26 09:21:32;;;;;;;9.73;8.10;;;;;;;17.42;68.05;100138.81;5015589;28;20034;-67
2021/06/26 09:24:06;;;;;;;11.23;8.82;;;;;;;17.43;68.27;100138.81;5015992;28;20056;-67
2021/06/26 09:26:36;;;;;;;9.70;8.70;;;;;;;17.44;68.05;100145.78;5016248;28;20069;-66
2021/06/26 09:29:17;;;;;;;10.20;8.93;;;;;;;17.44;68.20;100151.00;5016956;28;20041;-66
2021/06/26 09:31:52;;;;;;;14.82;8.23;;;;;;;17.46;68.15;100146.63;5017050;28;20045;-66
2021/06/26 09:34:19;;;;;;;12.00;8.70;;;;;;;17.47;68.08;100144.91;5016588;28;20033;-66
2021/06/26 09:36:51;;;;;;;10.73;8.90;;;;;;;17.48;68.11;100144.00;5016631;28;20034;-68
2021/06/26 09:39:22;;;;;;;9.85;8.43;;;;;;;17.50;68.08;100152.72;5015076;28;20062;-66
2021/06/26 09:41:53;;;;;;;10.90;8.32;;;;;;;17.53;68.23;100143.94;5016626;28;20029;-67
2021/06/26 09:44:19;;;;;;;9.75;8.38;;;;;;;17.54;67.98;100148.31;5015720;28;20068;-67
2021/06/26 09:46:50;;;;;;;11.50;7.78;;;;;;;17.55;67.94;100143.03;5016696;28;20481;-66
2021/06/26 09:49:28;;;;;;;11.52;8.35;;;;;;;17.56;67.95;100144.78;4998761;28;20038;-67
2021/06/26 09:51:58;;;;;;;9.30;8.20;;;;;;;17.57;67.79;100149.13;5015120;28;20034;-67
2021/06/26 09:54:27;;;;;;;10.45;8.63;;;;;;;17.59;67.93;100155.22;5016333;28;20038;-67
2021/06/26 09:56:52;;;;;;;9.50;8.50;;;;;;;17.60;67.73;100156.09;5016541;28;20129;-67
2021/06/26 09:59:18;;;;;;;11.13;8.80;;;;;;;17.60;67.82;100154.34;5016058;28;20125;-67
2021/06/26 10:01:46;;;;;;;10.40;8.35;;;;;;;17.61;67.81;100160.44;5016394;28;20085;-67
2021/06/26 10:04:16;;;;;;;9.75;8.75;;;;;;;17.62;67.94;100151.69;5016310;28;20029;-67
2021/06/26 10:06:42;;;;;;;10.20;9.15;;;;;;;17.61;67.87;100150.84;5016253;28;20036;-67
2021/06/26 10:09:08;;;;;;;11.13;8.40;;;;;;;17.62;67.72;100139.47;5014916;28;20060;-66
2021/06/26 10:11:39;;;;;;;8.65;7.72;;;;;;;17.63;67.84;100143.84;5016068;28;20496;-67
2021/06/26 10:14:07;;;;;;;10.80;8.85;;;;;;;17.64;67.86;100145.56;5016417;28;20045;-67
2021/06/26 10:16:35;;;;;;;9.70;8.45;;;;;;;17.65;67.86;100143.81;5014980;28;20034;-67
2021/06/26 10:19:02;;;;;;;9.70;8.52;;;;;;;17.66;67.75;100150.78;5015693;28;20091;-68
2021/06/26 10:21:32;;;;;;;12.25;8.35;;;;;;;17.65;67.86;100139.44;5015356;28;20034;-65
2021/06/26 10:24:00;;;;;;;11.15;7.97;;;;;;;17.67;67.67;100139.41;5015132;28;20132;-66
2021/06/26 10:26:35;;;;;;;11.77;8.55;;;;;;;17.67;67.76;100149.91;5015964;28;20370;-67
2021/06/26 10:29:03;;;;;;;9.73;8.55;;;;;;;17.68;67.81;100145.50;5015936;28;20168;-67
2021/06/26 10:31:35;;;;;;;11.73;9.07;;;;;;;17.69;67.79;100137.66;5014691;28;20042;-66
2021/06/26 10:34:42;;;;;;;10.50;8.48;;;;;;;17.68;67.82;100140.28;5014309;28;20034;-66
2021/06/26 10:37:19;;;;;;;10.68;8.38;;;;;;;17.68;67.91;100135.91;5010277;28;20045;-66
2021/06/26 10:39:46;;;;;;;9.25;7.80;;;;;;;17.69;67.58;100132.41;5015554;28;20038;-68
2021/06/26 10:42:14;;;;;;;10.10;9.10;;;;;;;17.69;67.77;100134.16;5015767;28;20037;-66
2021/06/26 10:44:45;;;;;;;13.75;8.90;;;;;;;17.70;67.87;100133.25;5014853;28;20030;-66
2021/06/26 10:47:15;;;;;;;12.15;8.38;;;;;;;17.71;67.73;100140.25;5015113;28;20116;-66
2021/06/26 10:49:44;;;;;;;9.23;8.20;;;;;;;17.72;67.84;100137.63;5015216;28;20512;-67
2021/06/26 10:52:17;;;;;;;8.48;7.57;;;;;;;17.73;67.61;100141.97;5015298;28;20485;-67
2021/06/26 10:54:57;;;;;;;9.27;7.93;;;;;;;17.72;67.62;100145.47;5013908;28;20497;-66
2021/06/26 10:57:25;;;;;;;9.95;7.88;;;;;;;17.74;67.77;100140.22;4998147;28;20041;-68
2021/06/26 11:00:09;;;;;;;11.30;8.45;;;;;;;17.75;67.52;100148.03;5015106;28;20485;-67
2021/06/26 11:02:43;;;;;;;9.27;8.10;;;;;;;17.75;67.53;100142.81;5014026;28;20046;-67
2021/06/26 11:05:10;;;;;;;11.98;8.82;;;;;;;17.78;67.78;100141.91;5014043;28;20037;-68
2021/06/26 11:07:36;;;;;;;13.35;10.23;;;;;;;17.79;68.01;100138.41;5013999;28;20038;-66
2021/06/26 11:10:11;;;;;;;10.10;9.10;;;;;;;17.78;67.71;100137.53;5014439;28;20516;-67
2021/06/26 11:12:45;;;;;;;12.15;9.02;;;;;;;17.79;67.59;100141.88;5014192;28;20041;-66
2021/06/26 11:15:11;;;;;;;;;;;;;;;17.78;67.63;100141.91;5014063;28;20536;-67
2021/06/26 11:17:41;;;;;;;10.45;9.23;;;;;;;17.78;67.85;100132.28;5013613;28;19967;-67
2021/06/26 11:20:10;;;;;;;10.13;8.88;;;;;;;17.79;67.76;100134.03;5013541;28;20065;-67
2021/06/26 11:22:59;;;;;;;9.60;8.57;;;;;;;17.79;67.76;100134.03;5013576;28;20065;-68